createdAt,value
2024-03-02T18:07:56.873Z,1.58
2024-03-02T18:10:24.095Z,1.60
2024-03-02T18:12:50.844Z,1.63
2024-03-02T18:15:17.644Z,1.58
2024-03-02T18:17:44.367Z,1.30
2024-03-02T18:20:16.611Z,1.30
2024-03-02T18:22:46.645Z,1.20
2024-03-02T18:25:14.132Z,1.42
2024-03-02T18:27:41.207Z,1.30
2024-03-02T18:30:11.429Z,1.48
2024-03-02T18:32:39.723Z,1.45
2024-03-02T18:35:13.095Z,1.55
2024-03-02T18:37:40.425Z,1.37
2024-03-02T18:40:08.338Z,1.35
2024-03-02T18:42:36.720Z,1.50
2024-03-02T18:45:06.830Z,1.50
2024-03-02T18:47:36.193Z,1.80
2024-03-02T18:50:06.440Z,3.53
2024-03-02T18:52:36.078Z,2.90
2024-03-02T18:55:07.940Z,2.00
2024-03-02T18:57:35.104Z,1.90
2024-03-02T19:00:02.810Z,1.60
2024-03-02T19:02:30.161Z,1.40
2024-03-02T19:04:56.885Z,0.60
2024-03-02T19:07:23.709Z,1.40
2024-03-02T19:09:50.512Z,1.35
2024-03-02T19:12:17.381Z,1.30
2024-03-02T19:14:44.122Z,1.52
2024-03-02T19:17:12.202Z,1.40
2024-03-02T19:19:41.237Z,1.30
2024-03-02T19:22:11.399Z,1.30
2024-03-02T19:24:39.062Z,1.40
2024-03-02T19:27:06.605Z,1.77
2024-03-02T19:29:33.710Z,1.40
2024-03-02T19:32:05.312Z,3.35
2024-03-02T19:34:35.372Z,1.92
2024-03-02T19:37:02.248Z,1.40
2024-03-02T19:39:29.271Z,1.60
2024-03-02T19:41:56.368Z,1.60
2024-03-02T19:44:28.977Z,1.70
2024-03-02T19:46:57.131Z,1.52
2024-03-02T19:49:25.341Z,1.42
2024-03-02T19:51:52.372Z,1.58
2024-03-02T19:54:19.154Z,1.80
2024-03-02T19:56:46.905Z,1.50
2024-03-02T19:59:14.100Z,1.80
2024-03-02T20:01:43.873Z,1.80
2024-03-02T20:04:11.174Z,1.60
2024-03-02T20:06:39.427Z,1.85
2024-03-02T20:09:06.847Z,1.45
2024-03-02T20:11:34.491Z,1.67
2024-03-02T20:14:01.233Z,1.50
2024-03-02T20:16:28.008Z,1.50
2024-03-02T20:18:54.950Z,1.80
2024-03-02T20:21:21.979Z,1.70
2024-03-02T20:23:49.547Z,1.90
2024-03-02T20:26:19.087Z,2.03
2024-03-02T20:28:47.341Z,1.88
2024-03-02T20:31:15.430Z,1.90
2024-03-02T20:33:42.390Z,2.35
2024-03-02T20:36:15.890Z,2.40
2024-03-02T20:38:43.083Z,2.83
2024-03-02T20:41:19.552Z,2.42
2024-03-02T20:43:47.036Z,3.70
2024-03-02T20:46:14.335Z,3.58
2024-03-02T20:48:41.711Z,2.50
2024-03-02T20:51:08.616Z,2.25
2024-03-02T20:53:35.439Z,2.50
2024-03-02T20:56:02.151Z,2.45
2024-03-02T20:58:28.906Z,2.53
2024-03-02T21:00:56.289Z,2.50
2024-03-02T21:03:25.769Z,2.40
2024-03-02T21:05:53.040Z,2.60
2024-03-02T21:08:19.744Z,2.38
2024-03-02T21:10:49.486Z,2.22
2024-03-02T21:13:17.086Z,2.40
2024-03-02T21:15:43.988Z,2.22
2024-03-02T21:18:10.753Z,2.53
2024-03-02T21:20:37.499Z,2.50
2024-03-02T21:23:04.484Z,2.05
2024-03-02T21:25:35.211Z,2.13
2024-03-02T21:28:02.392Z,2.08
2024-03-02T21:30:31.895Z,2.20
2024-03-02T21:32:59.031Z,2.00
2024-03-02T21:35:28.067Z,2.10
2024-03-02T21:37:55.196Z,1.85
2024-03-02T21:40:21.982Z,2.15
2024-03-02T21:42:48.758Z,1.73
2024-03-02T21:45:15.624Z,2.08
2024-03-02T21:47:42.359Z,1.63
2024-03-02T21:50:09.449Z,1.90
2024-03-02T21:52:36.465Z,1.80
2024-03-02T21:55:04.630Z,2.13
2024-03-02T21:57:31.385Z,1.80
2024-03-02T21:59:58.536Z,1.90
2024-03-02T22:02:25.227Z,1.50
2024-03-02T22:04:51.943Z,1.50
2024-03-02T22:07:18.693Z,1.90
2024-03-02T22:09:45.602Z,1.83
2024-03-02T22:12:12.534Z,1.80
2024-03-02T22:14:39.771Z,2.22
2024-03-02T22:17:06.742Z,2.20
2024-03-02T22:19:33.392Z,2.05
2024-03-02T22:22:00.205Z,1.67
2024-03-02T22:24:30.328Z,1.50
2024-03-02T22:26:57.125Z,1.63
2024-03-02T22:29:23.793Z,1.77
2024-03-02T22:31:50.526Z,1.58
2024-03-02T22:34:17.372Z,1.98
2024-03-02T22:36:44.206Z,1.60
2024-03-02T22:39:11.032Z,1.70
2024-03-02T22:41:37.945Z,1.80
2024-03-02T22:44:04.852Z,2.00
2024-03-02T22:46:31.815Z,1.45
2024-03-02T22:48:58.543Z,1.73
2024-03-02T22:51:26.632Z,1.80
2024-03-02T22:53:53.605Z,1.75
2024-03-02T22:56:21.735Z,1.85
2024-03-02T22:58:48.444Z,1.83
2024-03-02T23:01:15.347Z,1.92
2024-03-02T23:03:42.898Z,1.98
2024-03-02T23:06:09.921Z,2.00
2024-03-02T23:08:37.594Z,2.00
2024-03-02T23:11:05.217Z,2.03
2024-03-02T23:13:33.111Z,2.00
2024-03-02T23:15:59.997Z,2.00
2024-03-02T23:18:27.326Z,2.13
2024-03-02T23:20:54.883Z,2.15
2024-03-02T23:23:21.603Z,2.17
2024-03-02T23:25:48.547Z,2.28
2024-03-02T23:28:16.892Z,1.90
2024-03-02T23:30:44.303Z,2.20
2024-03-02T23:33:11.426Z,2.33
2024-03-02T23:35:38.484Z,2.20
2024-03-02T23:38:05.445Z,2.67
2024-03-02T23:40:50.964Z,2.75
2024-03-02T23:43:17.662Z,1.90
2024-03-02T23:45:44.415Z,2.30
2024-03-02T23:48:11.589Z,2.80
2024-03-02T23:50:38.444Z,2.33
2024-03-02T23:53:05.231Z,2.33
2024-03-02T23:55:42.855Z,2.55
2024-03-02T23:58:18.060Z,2.53
